Terminal Aerodrome Forecast
Issued by NWS

Home | Current Version | Previous Version | Text Only | Print | Product List | Glossary On
Versions: 1 2 3 4 5 6 7 8 9 10 11 12 13 14
000
FTUS45 KRIW 160500
TAFWRL
TAF
KWRL 160523Z 1606/1706 34014G20KT P6SM VCSH SCT050 BKN100
     FM160900 VRB05KT P6SM BKN100
     FM161500 VRB05KT P6SM FEW100
     FM162100 02007KT P6SM SCT060 BKN100
     FM170300 15006KT P6SM BKN100=

USA.gov is the U.S. government's official web portal to all federal, state and local government web resources and services.